createdAt,value
2018-10-01T00:02:19.747Z,10.60
2018-10-01T00:04:48.404Z,10.60
2018-10-01T00:07:17.724Z,10.70
2018-10-01T00:09:45.996Z,10.60
2018-10-01T00:12:14.304Z,10.70
2018-10-01T00:14:42.578Z,10.70
2018-10-01T00:17:10.884Z,10.70
2018-10-01T00:19:45.259Z,10.70
2018-10-01T00:22:18.862Z,10.80
2018-10-01T00:24:47.360Z,10.80
2018-10-01T00:27:15.665Z,10.80
2018-10-01T00:29:43.944Z,10.80
2018-10-01T00:32:12.296Z,10.80
2018-10-01T00:34:40.563Z,10.70
2018-10-01T00:37:08.820Z,10.70
2018-10-01T04:49:14.233Z,9.40
2018-10-01T04:51:43.453Z,9.30
2018-10-01T04:54:11.974Z,9.30
2018-10-01T04:56:40.855Z,9.30
2018-10-01T04:59:09.789Z,9.40
2018-10-01T05:01:38.337Z,9.30
2018-10-01T05:04:07.118Z,9.40
2018-10-01T05:06:35.421Z,9.40
2018-10-01T05:09:04.137Z,9.40
2018-10-01T05:11:33.600Z,9.40
2018-10-01T05:14:01.868Z,9.40
2018-10-01T05:16:30.115Z,9.40
2018-10-01T05:18:58.504Z,9.40
2018-10-01T05:21:26.760Z,9.30
2018-10-01T05:23:55.066Z,9.30
2018-10-01T05:26:23.744Z,9.20
2018-10-01T05:28:52.007Z,9.20
2018-10-01T05:31:20.264Z,9.10
2018-10-01T05:33:48.534Z,9.10
2018-10-01T05:36:16.793Z,9.00
2018-10-01T05:38:45.066Z,9.00
2018-10-01T05:41:13.771Z,9.00
2018-10-01T05:43:42.040Z,8.90
2018-10-01T05:46:11.497Z,8.90
2018-10-01T05:48:39.970Z,8.90
2018-10-01T05:51:08.467Z,8.90
2018-10-01T05:53:38.065Z,8.90
2018-10-01T05:56:07.569Z,8.90
2018-10-01T05:58:36.238Z,8.90
2018-10-01T06:01:04.818Z,9.00
2018-10-01T06:03:33.178Z,9.00
2018-10-01T06:06:01.476Z,9.10
2018-10-01T06:08:29.771Z,9.10
2018-10-01T06:10:58.130Z,9.10
2018-10-01T06:13:26.412Z,9.20
2018-10-01T06:15:54.710Z,9.20
2018-10-01T06:18:23.044Z,9.10
2018-10-01T06:20:51.344Z,9.10
2018-10-01T06:23:19.628Z,9.10
2018-10-01T06:25:48.547Z,9.10
2018-10-01T06:28:16.824Z,9.20
2018-10-01T06:30:45.103Z,9.30
2018-10-01T06:33:13.805Z,9.30
2018-10-01T06:35:42.084Z,9.30
2018-10-01T06:38:10.387Z,9.40
2018-10-01T06:40:38.822Z,9.40
2018-10-01T06:43:07.966Z,9.50
2018-10-01T06:45:36.221Z,9.50
2018-10-01T06:48:04.609Z,9.60
2018-10-01T06:50:32.872Z,9.50
2018-10-01T06:53:01.260Z,9.60
2018-10-01T06:55:30.501Z,9.70
2018-10-01T06:57:58.756Z,9.90
2018-10-01T07:00:27.085Z,10.00
2018-10-01T07:02:55.761Z,10.20
2018-10-01T07:05:24.061Z,10.30
2018-10-01T07:07:52.307Z,10.40
2018-10-01T07:10:20.965Z,10.50
2018-10-01T07:12:49.240Z,10.50
2018-10-01T07:15:17.508Z,10.60
2018-10-01T07:17:45.839Z,10.60
2018-10-01T07:20:14.119Z,10.70
2018-10-01T07:22:42.510Z,10.70
2018-10-01T07:25:10.712Z,10.80
2018-10-01T07:27:38.975Z,10.90
2018-10-01T07:30:07.399Z,11.10
2018-10-01T07:32:36.130Z,11.10
2018-10-01T07:35:04.552Z,11.10
2018-10-01T07:37:32.812Z,11.30
2018-10-01T07:40:02.081Z,11.50
2018-10-01T07:42:30.466Z,11.60
2018-10-01T07:44:58.909Z,11.80
2018-10-01T07:47:27.165Z,12.00
2018-10-01T07:49:55.428Z,12.00
2018-10-01T07:52:23.698Z,11.90
2018-10-01T07:54:52.368Z,11.80
2018-10-01T07:57:21.219Z,11.90
2018-10-01T07:59:49.527Z,11.70
2018-10-01T08:02:17.814Z,11.50
2018-10-01T08:04:46.074Z,11.80
2018-10-01T08:07:14.324Z,12.10
2018-10-01T08:09:43.049Z,12.40
2018-10-01T08:12:11.310Z,12.50
2018-10-01T08:14:39.637Z,12.30
2018-10-01T08:17:08.246Z,12.40
2018-10-01T08:19:36.541Z,12.40
2018-10-01T08:22:04.853Z,12.50
2018-10-01T08:24:33.145Z,12.50
2018-10-01T08:27:01.449Z,12.60
2018-10-01T08:29:29.755Z,12.70
2018-10-01T08:31:58.819Z,12.60
2018-10-01T08:34:27.137Z,12.90
2018-10-01T08:36:55.396Z,13.00
2018-10-01T08:39:23.714Z,13.30
2018-10-01T08:41:51.978Z,13.50
2018-10-01T08:44:20.279Z,12.70
2018-10-01T08:46:49.165Z,12.00
2018-10-01T08:49:32.001Z,11.70
2018-10-01T08:52:04.418Z,11.50
2018-10-01T08:54:42.430Z,11.60
2018-10-01T08:57:10.793Z,11.70
2018-10-01T08:59:39.120Z,12.00
2018-10-01T09:02:07.432Z,12.20
2018-10-01T09:04:35.712Z,12.20
2018-10-01T09:07:04.015Z,12.10
2018-10-01T09:09:32.521Z,12.10
2018-10-01T09:12:00.828Z,12.40
2018-10-01T09:14:29.168Z,12.80
2018-10-01T09:16:57.448Z,13.10
2018-10-01T09:19:25.867Z,12.90
2018-10-01T09:21:54.120Z,12.80
2018-10-01T09:24:22.381Z,12.80
2018-10-01T09:26:50.912Z,13.10
2018-10-01T09:29:19.202Z,13.60
2018-10-01T09:31:47.480Z,13.70
2018-10-01T09:34:16.024Z,13.20
2018-10-01T09:36:44.278Z,13.50
2018-10-01T09:39:12.548Z,13.40
2018-10-01T09:41:41.752Z,13.20
2018-10-01T09:44:10.202Z,13.30
2018-10-01T09:46:38.616Z,13.50
2018-10-01T09:49:06.911Z,13.60
2018-10-01T09:51:35.199Z,13.70
2018-10-01T09:54:03.505Z,13.90
2018-10-01T09:56:32.501Z,14.40
2018-10-01T09:59:00.933Z,14.10
2018-10-01T10:01:29.188Z,13.90
2018-10-01T10:03:57.922Z,13.50
2018-10-01T10:06:26.132Z,13.10
2018-10-01T10:08:54.401Z,12.70
2018-10-01T10:11:23.180Z,12.10
2018-10-01T10:13:51.390Z,11.70
2018-10-01T10:16:19.773Z,11.60
2018-10-01T10:18:48.349Z,11.70
2018-10-01T10:21:17.196Z,11.70
2018-10-01T10:23:45.469Z,11.90
2018-10-01T10:26:13.792Z,12.40
2018-10-01T10:28:42.052Z,12.80
2018-10-01T10:31:10.408Z,13.30
2018-10-01T10:33:38.740Z,13.60
2018-10-01T10:36:07.161Z,13.80
2018-10-01T10:38:35.595Z,13.90
2018-10-01T10:41:04.493Z,14.10
2018-10-01T10:43:32.776Z,14.20
2018-10-01T10:46:01.039Z,14.00
2018-10-01T10:48:30.198Z,14.00
2018-10-01T10:50:58.489Z,13.90
2018-10-01T10:53:26.776Z,14.00
2018-10-01T10:55:55.259Z,14.10
2018-10-01T10:58:23.585Z,14.10
2018-10-01T11:00:52.010Z,14.20
2018-10-01T11:03:20.814Z,14.00
2018-10-01T11:05:49.104Z,14.20
2018-10-01T11:08:17.486Z,14.30
2018-10-01T11:10:45.689Z,14.70
2018-10-01T11:13:14.036Z,14.30
2018-10-01T11:15:42.328Z,14.10
2018-10-01T11:18:11.765Z,14.50
2018-10-01T11:20:40.082Z,14.80
2018-10-01T11:23:08.352Z,15.10
2018-10-01T11:25:36.686Z,15.40
2018-10-01T11:28:04.956Z,15.00
2018-10-01T11:30:33.243Z,14.10
2018-10-01T11:33:02.109Z,14.00
2018-10-01T11:35:30.545Z,13.60
2018-10-01T11:37:58.791Z,14.40
2018-10-01T11:40:27.121Z,14.90
2018-10-01T11:42:55.453Z,14.20
2018-10-01T11:45:23.847Z,13.50
2018-10-01T11:47:52.053Z,13.40
2018-10-01T11:50:20.328Z,14.00
2018-10-01T11:52:48.612Z,14.60
2018-10-01T11:55:18.592Z,14.90
2018-10-01T11:57:46.939Z,14.90
2018-10-01T12:00:16.701Z,14.90
2018-10-01T12:02:45.670Z,13.90
2018-10-01T12:05:13.977Z,13.30
2018-10-01T12:07:42.213Z,13.00
2018-10-01T12:10:10.593Z,13.40
2018-10-01T12:12:38.798Z,13.70
2018-10-01T12:15:07.105Z,13.40
2018-10-01T12:17:35.874Z,13.70
2018-10-01T12:20:04.156Z,14.30
2018-10-01T12:22:32.452Z,14.50
2018-10-01T12:25:01.309Z,15.00
2018-10-01T12:27:29.688Z,15.40
2018-10-01T12:29:57.932Z,14.80
2018-10-01T12:32:27.122Z,14.40
2018-10-01T12:34:55.482Z,14.50
2018-10-01T12:37:23.782Z,13.90
2018-10-01T12:39:52.542Z,13.00
2018-10-01T12:42:20.820Z,12.60
2018-10-01T12:44:49.104Z,12.40
2018-10-01T12:47:17.425Z,12.40
2018-10-01T12:49:45.740Z,12.80
2018-10-01T12:52:14.017Z,13.30
2018-10-01T12:54:42.400Z,13.30
2018-10-01T12:57:10.696Z,13.10
2018-10-01T12:59:39.046Z,13.00
2018-10-01T13:02:07.940Z,13.30
2018-10-01T13:04:36.287Z,14.00
2018-10-01T13:07:04.566Z,14.50
2018-10-01T13:09:32.917Z,14.30
2018-10-01T13:12:01.188Z,14.40
2018-10-01T13:14:29.477Z,14.30
2018-10-01T13:16:58.092Z,13.60
2018-10-01T13:19:26.360Z,13.70
2018-10-01T13:21:54.652Z,14.20
2018-10-01T13:24:23.430Z,14.10
2018-10-01T13:26:51.648Z,13.50
2018-10-01T13:29:19.963Z,13.40
2018-10-01T13:31:48.572Z,13.50
2018-10-01T13:34:16.812Z,13.90
2018-10-01T13:36:45.239Z,14.20
2018-10-01T13:39:13.808Z,14.40
2018-10-01T13:41:42.311Z,14.50
2018-10-01T13:44:11.072Z,14.40
2018-10-01T13:46:39.991Z,14.30
2018-10-01T13:49:08.260Z,13.90
2018-10-01T13:51:36.516Z,13.70
2018-10-01T13:54:05.173Z,13.90
2018-10-01T13:56:33.462Z,14.10
2018-10-01T13:59:01.804Z,14.20
2018-10-01T14:01:30.428Z,14.20
2018-10-01T14:03:58.669Z,14.40
2018-10-01T14:06:27.162Z,14.30
2018-10-01T14:08:55.429Z,14.40
2018-10-01T14:11:24.097Z,14.30
2018-10-01T14:13:52.513Z,14.00
2018-10-01T14:16:20.712Z,13.20
2018-10-01T14:18:49.424Z,12.40
2018-10-01T14:21:17.704Z,11.90
2018-10-01T14:23:46.606Z,11.70
2018-10-01T14:26:14.888Z,12.00
2018-10-01T14:28:43.194Z,12.10
2018-10-01T14:31:11.816Z,12.20
2018-10-01T14:33:40.980Z,12.10
2018-10-01T14:36:09.354Z,12.10
2018-10-01T14:38:37.988Z,12.10
2018-10-01T14:41:06.288Z,12.10
2018-10-01T14:43:34.565Z,12.10
2018-10-01T14:46:02.890Z,12.00
2018-10-01T14:48:31.164Z,12.00
2018-10-01T14:50:59.440Z,12.00
2018-10-01T14:53:28.117Z,11.90
2018-10-01T14:55:56.376Z,12.00
2018-10-01T14:58:24.776Z,12.00
2018-10-01T15:00:53.112Z,11.90
2018-10-01T15:03:21.351Z,12.00
2018-10-01T15:05:49.618Z,12.00
2018-10-01T15:08:18.445Z,12.00
2018-10-01T15:10:46.753Z,11.90
2018-10-01T15:13:14.997Z,11.90
2018-10-01T15:15:43.726Z,12.00
2018-10-01T15:18:12.052Z,12.00
2018-10-01T15:20:40.300Z,12.00
2018-10-01T15:23:09.237Z,12.00
2018-10-01T15:25:37.521Z,11.90
2018-10-01T15:28:05.804Z,11.90
2018-10-01T15:30:34.238Z,11.70
2018-10-01T15:33:02.446Z,11.30
2018-10-01T15:35:30.774Z,10.90
2018-10-01T15:37:59.929Z,10.80
2018-10-01T15:40:29.652Z,10.70
2018-10-01T15:42:58.088Z,10.70
2018-10-01T15:45:26.474Z,10.60
2018-10-01T15:47:54.781Z,10.70
2018-10-01T15:50:23.064Z,10.80
2018-10-01T15:52:52.060Z,10.80
2018-10-01T15:55:21.480Z,10.70
2018-10-01T15:57:52.065Z,10.70
2018-10-01T16:00:20.581Z,10.60
2018-10-01T16:02:48.878Z,10.70
2018-10-01T16:05:17.201Z,10.60
2018-10-01T16:07:45.483Z,10.60
2018-10-01T16:10:13.888Z,10.60
2018-10-01T16:12:42.181Z,10.50
2018-10-01T16:15:10.451Z,10.40
2018-10-01T16:17:38.721Z,10.40
2018-10-01T16:20:07.205Z,10.40
2018-10-01T16:22:35.475Z,10.50
2018-10-01T16:25:03.761Z,10.40
2018-10-01T16:27:32.516Z,10.40
2018-10-01T16:30:00.786Z,10.50
2018-10-01T16:32:29.105Z,10.50
2018-10-01T16:34:57.377Z,10.60
2018-10-01T16:37:25.640Z,10.60
2018-10-01T16:39:53.929Z,10.50
2018-10-01T16:42:22.626Z,10.50
2018-10-01T16:44:50.944Z,10.50
2018-10-01T16:47:19.213Z,10.50
2018-10-01T16:49:47.881Z,10.50
2018-10-01T16:52:16.198Z,10.50
2018-10-01T16:54:44.557Z,10.50
2018-10-01T16:57:13.794Z,10.40
2018-10-01T16:59:42.065Z,10.40
2018-10-01T17:02:10.373Z,10.30
2018-10-01T17:04:39.117Z,10.20
2018-10-01T17:07:08.049Z,10.10
2018-10-01T17:09:36.404Z,10.10
2018-10-01T17:12:04.965Z,10.00
2018-10-01T17:14:33.324Z,9.90
2018-10-01T17:17:01.625Z,9.90
2018-10-01T17:19:30.819Z,9.90
2018-10-01T17:22:00.608Z,9.90
2018-10-01T17:24:28.893Z,9.80
2018-10-01T17:26:57.224Z,9.80
2018-10-01T17:29:25.476Z,9.80
2018-10-01T17:31:53.751Z,9.80
2018-10-01T17:34:22.553Z,9.70
2018-10-01T17:36:50.813Z,9.80
2018-10-01T17:39:19.076Z,9.80
2018-10-01T17:41:47.801Z,9.80
2018-10-01T17:44:16.081Z,9.80
2018-10-01T17:46:44.342Z,9.70
2018-10-01T17:49:13.477Z,9.80
2018-10-01T17:51:41.750Z,9.80
2018-10-01T17:54:10.026Z,9.90
2018-10-01T17:56:38.684Z,9.90
2018-10-01T17:59:06.956Z,9.90
2018-10-01T18:01:35.297Z,10.00
2018-10-01T18:04:04.607Z,9.90
2018-10-01T18:06:32.876Z,9.90
2018-10-01T18:09:01.157Z,9.90
2018-10-01T18:11:29.524Z,9.90
2018-10-01T18:13:57.856Z,9.90
2018-10-01T18:16:26.241Z,9.80
2018-10-01T18:18:54.937Z,9.80
2018-10-01T18:21:23.207Z,9.80
2018-10-01T18:23:51.533Z,9.80
2018-10-01T18:26:20.170Z,9.70
2018-10-01T18:28:48.445Z,9.70
2018-10-01T18:31:17.113Z,9.60
2018-10-01T18:33:46.408Z,9.60
2018-10-01T18:36:14.755Z,9.50
2018-10-01T18:38:43.028Z,9.50
2018-10-01T18:41:11.980Z,9.40
2018-10-01T18:43:40.350Z,9.40
2018-10-01T18:46:08.600Z,9.30
2018-10-01T18:48:37.321Z,9.20
2018-10-01T18:51:05.676Z,9.10
2018-10-01T18:53:33.945Z,9.00
2018-10-01T18:56:02.768Z,8.90
2018-10-01T18:58:31.048Z,8.90
2018-10-01T19:00:59.308Z,8.90
2018-10-01T19:03:28.081Z,8.80
2018-10-01T19:05:56.321Z,8.80
2018-10-01T19:08:24.569Z,8.80
2018-10-01T19:10:53.214Z,8.90
2018-10-01T19:13:21.591Z,8.90
2018-10-01T19:15:49.984Z,8.90
2018-10-01T19:18:18.627Z,8.90
2018-10-01T19:20:46.902Z,8.90
2018-10-01T19:23:15.280Z,8.90
2018-10-01T19:25:44.043Z,8.90
2018-10-01T19:28:12.341Z,8.90
2018-10-01T19:30:40.626Z,8.90
2018-10-01T19:33:09.151Z,8.90
2018-10-01T19:35:37.499Z,8.90
2018-10-01T19:38:05.732Z,8.80
2018-10-01T19:40:34.507Z,8.80
2018-10-01T19:43:02.769Z,8.80
2018-10-01T19:45:31.103Z,8.80
2018-10-01T19:47:59.955Z,8.70
2018-10-01T19:50:28.223Z,8.70
2018-10-01T19:52:56.555Z,8.70
2018-10-01T19:55:24.977Z,8.70
2018-10-01T19:57:53.252Z,8.70
2018-10-01T20:00:21.859Z,8.80
2018-10-01T20:02:50.175Z,8.80
2018-10-01T20:05:18.432Z,8.80
2018-10-01T20:07:46.722Z,8.80
2018-10-01T20:10:15.407Z,8.90
2018-10-01T20:12:43.651Z,9.00
2018-10-01T20:15:11.908Z,9.00
2018-10-01T20:17:40.385Z,9.10
2018-10-01T20:20:08.698Z,9.10
2018-10-01T20:22:37.056Z,9.10
2018-10-01T20:25:06.056Z,9.10
2018-10-01T20:27:34.426Z,9.10
2018-10-01T20:30:02.891Z,9.10
2018-10-01T20:32:31.449Z,9.20
2018-10-01T20:34:59.825Z,9.10
2018-10-01T20:37:28.086Z,9.10
2018-10-01T20:39:56.842Z,9.20
2018-10-01T20:42:25.257Z,9.10
2018-10-01T20:44:53.504Z,9.00
2018-10-01T20:47:22.617Z,8.90
2018-10-01T20:49:50.878Z,8.90
2018-10-01T20:52:19.444Z,9.00
2018-10-01T20:54:48.059Z,9.00
2018-10-01T20:57:16.329Z,9.00
2018-10-01T20:59:44.620Z,9.00
2018-10-01T21:02:13.031Z,9.00
2018-10-01T21:04:41.316Z,9.10
2018-10-01T21:07:09.596Z,9.00
2018-10-01T21:09:37.880Z,9.00
2018-10-01T21:12:06.322Z,9.10
2018-10-01T21:14:34.591Z,9.10
2018-10-01T21:17:03.291Z,9.10
2018-10-01T21:19:31.633Z,9.10
2018-10-01T21:21:59.884Z,9.10
2018-10-01T21:24:28.172Z,9.10
2018-10-01T21:26:56.509Z,9.10
2018-10-01T21:29:24.778Z,9.10
2018-10-01T21:31:53.423Z,9.10
2018-10-01T21:34:21.720Z,9.00
2018-10-01T21:36:49.984Z,8.90
2018-10-01T21:39:56.856Z,8.90
2018-10-01T21:42:25.375Z,8.90
2018-10-01T21:44:53.661Z,8.90
2018-10-01T21:47:21.973Z,8.90
2018-10-01T21:49:50.316Z,8.70
2018-10-01T21:52:18.588Z,8.60
2018-10-01T21:54:47.543Z,8.60
2018-10-01T21:57:15.834Z,8.60
2018-10-01T21:59:44.084Z,8.60
2018-10-01T22:02:12.685Z,8.50
2018-10-01T22:04:40.973Z,8.50
2018-10-01T22:07:09.316Z,8.40
2018-10-01T22:09:37.605Z,8.50
2018-10-01T22:12:05.890Z,8.50
2018-10-01T22:14:34.512Z,8.50
2018-10-01T22:17:03.144Z,8.60
2018-10-01T22:19:31.476Z,8.60
2018-10-01T22:22:00.269Z,8.70
2018-10-01T22:24:28.868Z,8.70
2018-10-01T22:26:57.184Z,8.60
2018-10-01T22:29:26.133Z,8.60
2018-10-01T22:31:54.441Z,8.60
2018-10-01T22:34:22.901Z,8.70
2018-10-01T22:36:51.174Z,8.70
2018-10-01T22:39:19.910Z,8.70
2018-10-01T22:41:48.245Z,8.70
2018-10-01T22:44:16.696Z,8.70
2018-10-01T22:46:45.013Z,8.70
2018-10-01T22:49:13.284Z,8.70
2018-10-01T22:51:41.536Z,8.60
2018-10-01T22:54:10.168Z,8.60
2018-10-01T22:56:38.432Z,8.60
2018-10-01T22:59:06.784Z,8.60
2018-10-01T23:01:35.199Z,8.70
2018-10-01T23:04:03.604Z,8.70
2018-10-01T23:06:31.892Z,8.70
2018-10-01T23:09:00.567Z,8.70
2018-10-01T23:11:28.820Z,8.60
2018-10-01T23:13:57.088Z,8.60
2018-10-01T23:16:25.508Z,8.60
2018-10-01T23:18:53.805Z,8.50
2018-10-01T23:21:22.282Z,8.60
2018-10-01T23:23:50.865Z,8.60
2018-10-01T23:26:19.195Z,8.50
2018-10-01T23:28:47.461Z,8.50
2018-10-01T23:31:15.776Z,8.60
2018-10-01T23:33:44.036Z,8.60
2018-10-01T23:36:12.326Z,8.60
2018-10-01T23:38:40.758Z,8.60
2018-10-01T23:41:08.951Z,8.60
2018-10-01T23:43:37.398Z,8.60
2018-10-01T23:46:06.300Z,8.60
2018-10-01T23:48:34.552Z,8.60
2018-10-01T23:51:02.934Z,8.60
2018-10-01T23:53:31.283Z,8.60
2018-10-01T23:55:59.548Z,8.60
2018-10-01T23:58:27.814Z,8.60
